Terminal Aerodrome Forecast
Issued by NWS

Home | Current Version | Previous Version | Graphics & Text | Print | Product List | Glossary On
Versions: 1 2 3 4 5 6 7 8 9 10 11 12 13 14 15 16 17 18 19 20 21 22 23 24 25 26 27 28
000
FTUS43 KABR 230115 AAC
TAFPIR
TAF AMD
KPIR 230115Z 2301/2324 13021G29KT P6SM OVC250
     FM230500 08015KT P6SM VCTS OVC050CB
     FM230900 09010KT P6SM BKN250
     FM231800 32020KT P6SM SCT250=

USA.gov is the U.S. government's official web portal to all federal, state and local government web resources and services.